sensor_id;sensor_type;location;lat;lon;timestamp;P1;durP1;ratioP1;P2;durP2;ratioP2
63902;SDS011;50072;50.678;13.938;2023-10-19T00:01:55;34.95;;;14.85;;
63902;SDS011;50072;50.678;13.938;2023-10-19T00:07:19;29.55;;;12.63;;
63902;SDS011;50072;50.678;13.938;2023-10-19T00:09:53;33.67;;;14.38;;
63902;SDS011;50072;50.678;13.938;2023-10-19T00:12:20;29.08;;;13.05;;
63902;SDS011;50072;50.678;13.938;2023-10-19T00:14:49;34.00;;;12.98;;
63902;SDS011;50072;50.678;13.938;2023-10-19T00:17:23;31.05;;;12.85;;
63902;SDS011;50072;50.678;13.938;2023-10-19T00:19:53;28.48;;;12.43;;
63902;SDS011;50072;50.678;13.938;2023-10-19T00:22:53;23.10;;;10.93;;
63902;SDS011;50072;50.678;13.938;2023-10-19T00:25:19;29.67;;;14.32;;
63902;SDS011;50072;50.678;13.938;2023-10-19T00:27:53;25.92;;;13.15;;
63902;SDS011;50072;50.678;13.938;2023-10-19T00:30:25;25.00;;;11.75;;
63902;SDS011;50072;50.678;13.938;2023-10-19T00:38:50;27.20;;;11.15;;
63902;SDS011;50072;50.678;13.938;2023-10-19T00:41:26;18.08;;;9.30;;
63902;SDS011;50072;50.678;13.938;2023-10-19T00:47:10;40.10;;;15.52;;
63902;SDS011;50072;50.678;13.938;2023-10-19T00:49:47;23.95;;;13.00;;
63902;SDS011;50072;50.678;13.938;2023-10-19T00:52:20;26.75;;;11.77;;
63902;SDS011;50072;50.678;13.938;2023-10-19T00:54:50;19.88;;;10.73;;
63902;SDS011;50072;50.678;13.938;2023-10-19T00:57:21;22.65;;;10.52;;
63902;SDS011;50072;50.678;13.938;2023-10-19T01:05:51;14.18;;;7.40;;
63902;SDS011;50072;50.678;13.938;2023-10-19T01:08:23;17.88;;;7.05;;
63902;SDS011;50072;50.678;13.938;2023-10-19T01:10:53;17.67;;;7.85;;
63902;SDS011;50072;50.678;13.938;2023-10-19T01:13:20;16.58;;;7.50;;
63902;SDS011;50072;50.678;13.938;2023-10-19T01:15:53;14.88;;;7.65;;
63902;SDS011;50072;50.678;13.938;2023-10-19T01:18:25;12.95;;;6.68;;
63902;SDS011;50072;50.678;13.938;2023-10-19T01:20:55;16.83;;;6.90;;
63902;SDS011;50072;50.678;13.938;2023-10-19T01:23:23;12.82;;;6.97;;
63902;SDS011;50072;50.678;13.938;2023-10-19T01:25:56;15.32;;;7.55;;
63902;SDS011;50072;50.678;13.938;2023-10-19T01:28:25;16.75;;;7.38;;
63902;SDS011;50072;50.678;13.938;2023-10-19T01:33:54;14.30;;;7.20;;
63902;SDS011;50072;50.678;13.938;2023-10-19T01:39:11;14.82;;;7.32;;
63902;SDS011;50072;50.678;13.938;2023-10-19T01:44:23;12.57;;;7.00;;
63902;SDS011;50072;50.678;13.938;2023-10-19T01:46:52;16.35;;;7.60;;
63902;SDS011;50072;50.678;13.938;2023-10-19T01:49:22;17.50;;;7.82;;
63902;SDS011;50072;50.678;13.938;2023-10-19T01:51:55;17.42;;;7.68;;
63902;SDS011;50072;50.678;13.938;2023-10-19T01:54:25;17.67;;;7.47;;
63902;SDS011;50072;50.678;13.938;2023-10-19T01:56:54;16.30;;;7.78;;
63902;SDS011;50072;50.678;13.938;2023-10-19T01:59:25;23.63;;;7.80;;
63902;SDS011;50072;50.678;13.938;2023-10-19T02:01:53;14.70;;;7.47;;
63902;SDS011;50072;50.678;13.938;2023-10-19T02:04:22;17.20;;;7.85;;
63902;SDS011;50072;50.678;13.938;2023-10-19T02:06:54;14.70;;;7.85;;
63902;SDS011;50072;50.678;13.938;2023-10-19T02:12:23;16.48;;;7.65;;
63902;SDS011;50072;50.678;13.938;2023-10-19T02:14:53;17.42;;;7.65;;
63902;SDS011;50072;50.678;13.938;2023-10-19T02:19:55;15.35;;;8.90;;
63902;SDS011;50072;50.678;13.938;2023-10-19T02:22:23;15.43;;;8.00;;
63902;SDS011;50072;50.678;13.938;2023-10-19T02:24:49;17.08;;;7.85;;
63902;SDS011;50072;50.678;13.938;2023-10-19T02:27:23;18.67;;;8.23;;
63902;SDS011;50072;50.678;13.938;2023-10-19T02:34:53;16.65;;;8.05;;
63902;SDS011;50072;50.678;13.938;2023-10-19T02:37:24;16.35;;;8.73;;
63902;SDS011;50072;50.678;13.938;2023-10-19T02:39:53;18.10;;;8.88;;
63902;SDS011;50072;50.678;13.938;2023-10-19T02:44:55;22.83;;;10.20;;
63902;SDS011;50072;50.678;13.938;2023-10-19T02:47:23;20.13;;;9.50;;
63902;SDS011;50072;50.678;13.938;2023-10-19T02:49:54;19.90;;;10.23;;
63902;SDS011;50072;50.678;13.938;2023-10-19T02:52:23;18.38;;;9.98;;
63902;SDS011;50072;50.678;13.938;2023-10-19T02:54:55;17.45;;;10.23;;
63902;SDS011;50072;50.678;13.938;2023-10-19T02:57:23;21.70;;;12.18;;
63902;SDS011;50072;50.678;13.938;2023-10-19T02:59:55;20.67;;;11.57;;
63902;SDS011;50072;50.678;13.938;2023-10-19T03:02:22;24.48;;;11.73;;
63902;SDS011;50072;50.678;13.938;2023-10-19T03:04:53;21.80;;;10.77;;
63902;SDS011;50072;50.678;13.938;2023-10-19T03:07:25;19.27;;;9.55;;
63902;SDS011;50072;50.678;13.938;2023-10-19T03:09:53;19.48;;;10.48;;
63902;SDS011;50072;50.678;13.938;2023-10-19T03:12:22;24.42;;;11.10;;
63902;SDS011;50072;50.678;13.938;2023-10-19T03:14:53;22.35;;;11.00;;
63902;SDS011;50072;50.678;13.938;2023-10-19T03:17:23;21.45;;;10.70;;
63902;SDS011;50072;50.678;13.938;2023-10-19T03:22:24;21.98;;;11.05;;
63902;SDS011;50072;50.678;13.938;2023-10-19T03:24:50;19.10;;;10.55;;
63902;SDS011;50072;50.678;13.938;2023-10-19T03:27:25;20.55;;;11.32;;
63902;SDS011;50072;50.678;13.938;2023-10-19T03:29:53;20.75;;;11.10;;
63902;SDS011;50072;50.678;13.938;2023-10-19T03:32:23;22.50;;;11.15;;
63902;SDS011;50072;50.678;13.938;2023-10-19T03:42:57;22.05;;;11.27;;
63902;SDS011;50072;50.678;13.938;2023-10-19T03:45:23;21.10;;;12.18;;
63902;SDS011;50072;50.678;13.938;2023-10-19T03:47:53;23.48;;;12.00;;
63902;SDS011;50072;50.678;13.938;2023-10-19T03:50:23;21.63;;;11.80;;
63902;SDS011;50072;50.678;13.938;2023-10-19T03:52:54;23.08;;;12.07;;
63902;SDS011;50072;50.678;13.938;2023-10-19T03:55:23;27.95;;;12.95;;
63902;SDS011;50072;50.678;13.938;2023-10-19T03:57:49;24.55;;;13.68;;
63902;SDS011;50072;50.678;13.938;2023-10-19T04:00:21;33.08;;;15.90;;
63902;SDS011;50072;50.678;13.938;2023-10-19T04:02:52;30.23;;;14.57;;
63902;SDS011;50072;50.678;13.938;2023-10-19T04:05:25;30.25;;;14.55;;
63902;SDS011;50072;50.678;13.938;2023-10-19T04:07:52;30.65;;;14.43;;
63902;SDS011;50072;50.678;13.938;2023-10-19T04:10:21;30.00;;;15.23;;
63902;SDS011;50072;50.678;13.938;2023-10-19T04:13:05;30.63;;;15.45;;
63902;SDS011;50072;50.678;13.938;2023-10-19T04:15:35;30.77;;;15.32;;
63902;SDS011;50072;50.678;13.938;2023-10-19T04:18:02;25.83;;;14.02;;
63902;SDS011;50072;50.678;13.938;2023-10-19T04:20:35;29.33;;;15.77;;
63902;SDS011;50072;50.678;13.938;2023-10-19T04:23:23;27.23;;;14.73;;
63902;SDS011;50072;50.678;13.938;2023-10-19T04:25:53;30.23;;;15.65;;
63902;SDS011;50072;50.678;13.938;2023-10-19T04:28:22;31.95;;;15.45;;
63902;SDS011;50072;50.678;13.938;2023-10-19T04:30:59;27.05;;;14.43;;
63902;SDS011;50072;50.678;13.938;2023-10-19T04:33:31;26.58;;;13.73;;
63902;SDS011;50072;50.678;13.938;2023-10-19T04:35:59;24.75;;;13.57;;
63902;SDS011;50072;50.678;13.938;2023-10-19T04:38:26;27.20;;;14.43;;
63902;SDS011;50072;50.678;13.938;2023-10-19T04:40:52;30.52;;;14.95;;
63902;SDS011;50072;50.678;13.938;2023-10-19T04:43:24;30.10;;;14.68;;
63902;SDS011;50072;50.678;13.938;2023-10-19T04:45:50;28.02;;;15.05;;
63902;SDS011;50072;50.678;13.938;2023-10-19T04:48:17;28.23;;;14.45;;
63902;SDS011;50072;50.678;13.938;2023-10-19T04:50:43;29.50;;;14.32;;
63902;SDS011;50072;50.678;13.938;2023-10-19T04:53:11;30.20;;;15.32;;
63902;SDS011;50072;50.678;13.938;2023-10-19T04:55:37;25.75;;;14.60;;
63902;SDS011;50072;50.678;13.938;2023-10-19T04:58:04;26.83;;;14.45;;
63902;SDS011;50072;50.678;13.938;2023-10-19T05:03:23;30.02;;;15.02;;
63902;SDS011;50072;50.678;13.938;2023-10-19T05:08:23;29.13;;;14.60;;
63902;SDS011;50072;50.678;13.938;2023-10-19T05:10:54;27.58;;;15.18;;
63902;SDS011;50072;50.678;13.938;2023-10-19T05:13:26;25.13;;;14.65;;
63902;SDS011;50072;50.678;13.938;2023-10-19T05:15:53;28.27;;;15.18;;
63902;SDS011;50072;50.678;13.938;2023-10-19T05:18:25;26.83;;;14.38;;
63902;SDS011;50072;50.678;13.938;2023-10-19T05:23:23;29.63;;;14.88;;
63902;SDS011;50072;50.678;13.938;2023-10-19T05:25:52;30.27;;;15.52;;
63902;SDS011;50072;50.678;13.938;2023-10-19T05:28:20;28.58;;;14.80;;
63902;SDS011;50072;50.678;13.938;2023-10-19T05:33:23;27.55;;;15.30;;
63902;SDS011;50072;50.678;13.938;2023-10-19T05:35:53;26.90;;;15.30;;
63902;SDS011;50072;50.678;13.938;2023-10-19T05:38:23;36.22;;;18.00;;
63902;SDS011;50072;50.678;13.938;2023-10-19T05:40:53;29.75;;;17.05;;
63902;SDS011;50072;50.678;13.938;2023-10-19T05:43:23;34.00;;;17.73;;
63902;SDS011;50072;50.678;13.938;2023-10-19T05:45:54;30.25;;;16.05;;
63902;SDS011;50072;50.678;13.938;2023-10-19T05:48:23;29.02;;;16.00;;
63902;SDS011;50072;50.678;13.938;2023-10-19T05:50:53;30.63;;;16.42;;
63902;SDS011;50072;50.678;13.938;2023-10-19T05:53:22;32.10;;;18.10;;
63902;SDS011;50072;50.678;13.938;2023-10-19T05:58:23;31.58;;;16.25;;
63902;SDS011;50072;50.678;13.938;2023-10-19T06:00:52;39.35;;;20.63;;
63902;SDS011;50072;50.678;13.938;2023-10-19T06:05:50;38.25;;;18.45;;
63902;SDS011;50072;50.678;13.938;2023-10-19T06:08:16;37.53;;;20.50;;
63902;SDS011;50072;50.678;13.938;2023-10-19T06:10:42;35.28;;;20.73;;
63902;SDS011;50072;50.678;13.938;2023-10-19T06:13:07;56.88;;;29.02;;
63902;SDS011;50072;50.678;13.938;2023-10-19T06:15:35;39.13;;;20.27;;
63902;SDS011;50072;50.678;13.938;2023-10-19T06:18:01;38.17;;;21.00;;
63902;SDS011;50072;50.678;13.938;2023-10-19T06:20:28;38.33;;;22.10;;
63902;SDS011;50072;50.678;13.938;2023-10-19T06:22:56;39.90;;;21.65;;
63902;SDS011;50072;50.678;13.938;2023-10-19T06:25:30;39.13;;;20.75;;
63902;SDS011;50072;50.678;13.938;2023-10-19T06:28:00;37.60;;;19.10;;
63902;SDS011;50072;50.678;13.938;2023-10-19T06:30:28;39.30;;;21.33;;
63902;SDS011;50072;50.678;13.938;2023-10-19T06:32:58;39.33;;;19.95;;
63902;SDS011;50072;50.678;13.938;2023-10-19T06:35:30;34.72;;;18.50;;
63902;SDS011;50072;50.678;13.938;2023-10-19T06:37:59;36.17;;;20.15;;
63902;SDS011;50072;50.678;13.938;2023-10-19T06:40:28;34.75;;;19.92;;
63902;SDS011;50072;50.678;13.938;2023-10-19T06:42:55;33.75;;;18.58;;
63902;SDS011;50072;50.678;13.938;2023-10-19T06:45:23;34.30;;;19.02;;
63902;SDS011;50072;50.678;13.938;2023-10-19T06:47:51;35.50;;;18.75;;
63902;SDS011;50072;50.678;13.938;2023-10-19T06:50:20;32.20;;;19.00;;
63902;SDS011;50072;50.678;13.938;2023-10-19T06:52:51;36.65;;;19.25;;
63902;SDS011;50072;50.678;13.938;2023-10-19T06:55:20;38.83;;;20.23;;
63902;SDS011;50072;50.678;13.938;2023-10-19T06:57:51;36.33;;;20.05;;
63902;SDS011;50072;50.678;13.938;2023-10-19T07:00:21;38.70;;;18.58;;
63902;SDS011;50072;50.678;13.938;2023-10-19T07:02:51;37.88;;;20.25;;
63902;SDS011;50072;50.678;13.938;2023-10-19T07:05:21;34.20;;;18.83;;
63902;SDS011;50072;50.678;13.938;2023-10-19T07:07:51;37.72;;;20.05;;
63902;SDS011;50072;50.678;13.938;2023-10-19T07:10:20;36.00;;;20.30;;
63902;SDS011;50072;50.678;13.938;2023-10-19T07:12:50;39.15;;;20.58;;
63902;SDS011;50072;50.678;13.938;2023-10-19T07:15:23;41.88;;;21.20;;
63902;SDS011;50072;50.678;13.938;2023-10-19T07:17:50;40.38;;;21.30;;
63902;SDS011;50072;50.678;13.938;2023-10-19T07:20:20;33.45;;;18.70;;
63902;SDS011;50072;50.678;13.938;2023-10-19T07:25:19;34.50;;;18.65;;
63902;SDS011;50072;50.678;13.938;2023-10-19T07:27:50;39.70;;;20.52;;
63902;SDS011;50072;50.678;13.938;2023-10-19T07:30:17;35.60;;;19.10;;
63902;SDS011;50072;50.678;13.938;2023-10-19T07:32:48;37.00;;;21.25;;
63902;SDS011;50072;50.678;13.938;2023-10-19T07:35:25;37.47;;;21.10;;
63902;SDS011;50072;50.678;13.938;2023-10-19T07:37:52;38.33;;;20.98;;
63902;SDS011;50072;50.678;13.938;2023-10-19T07:40:19;39.20;;;21.45;;
63902;SDS011;50072;50.678;13.938;2023-10-19T07:42:48;35.67;;;20.38;;
63902;SDS011;50072;50.678;13.938;2023-10-19T07:45:27;38.90;;;20.95;;
63902;SDS011;50072;50.678;13.938;2023-10-19T07:47:55;37.90;;;20.33;;
63902;SDS011;50072;50.678;13.938;2023-10-19T07:50:23;41.33;;;20.73;;
63902;SDS011;50072;50.678;13.938;2023-10-19T07:52:50;41.00;;;22.13;;
63902;SDS011;50072;50.678;13.938;2023-10-19T07:55:18;41.50;;;22.20;;
63902;SDS011;50072;50.678;13.938;2023-10-19T07:57:47;39.95;;;21.73;;
63902;SDS011;50072;50.678;13.938;2023-10-19T08:00:23;37.15;;;19.88;;
63902;SDS011;50072;50.678;13.938;2023-10-19T08:02:49;50.97;;;24.50;;
63902;SDS011;50072;50.678;13.938;2023-10-19T08:05:16;43.55;;;22.45;;
63902;SDS011;50072;50.678;13.938;2023-10-19T08:07:45;43.70;;;22.63;;
63902;SDS011;50072;50.678;13.938;2023-10-19T08:10:17;47.95;;;24.42;;
63902;SDS011;50072;50.678;13.938;2023-10-19T08:12:45;47.20;;;24.30;;
63902;SDS011;50072;50.678;13.938;2023-10-19T08:15:14;41.15;;;22.50;;
63902;SDS011;50072;50.678;13.938;2023-10-19T08:17:44;42.22;;;22.70;;
63902;SDS011;50072;50.678;13.938;2023-10-19T08:20:22;39.70;;;21.85;;
63902;SDS011;50072;50.678;13.938;2023-10-19T08:22:49;44.25;;;24.23;;
63902;SDS011;50072;50.678;13.938;2023-10-19T08:25:16;41.83;;;22.92;;
63902;SDS011;50072;50.678;13.938;2023-10-19T08:27:42;41.50;;;21.83;;
63902;SDS011;50072;50.678;13.938;2023-10-19T08:30:18;36.92;;;19.17;;
63902;SDS011;50072;50.678;13.938;2023-10-19T08:32:47;33.75;;;18.40;;
63902;SDS011;50072;50.678;13.938;2023-10-19T08:35:19;42.45;;;21.70;;
63902;SDS011;50072;50.678;13.938;2023-10-19T08:37:49;38.90;;;20.50;;
63902;SDS011;50072;50.678;13.938;2023-10-19T08:40:18;36.22;;;20.40;;
63902;SDS011;50072;50.678;13.938;2023-10-19T08:42:45;38.78;;;21.17;;
63902;SDS011;50072;50.678;13.938;2023-10-19T08:45:12;35.03;;;19.67;;
63902;SDS011;50072;50.678;13.938;2023-10-19T08:47:58;32.80;;;19.52;;
63902;SDS011;50072;50.678;13.938;2023-10-19T08:50:30;47.28;;;23.38;;
63902;SDS011;50072;50.678;13.938;2023-10-19T08:52:59;39.47;;;20.60;;
63902;SDS011;50072;50.678;13.938;2023-10-19T08:55:31;42.47;;;25.05;;
63902;SDS011;50072;50.678;13.938;2023-10-19T08:58:00;35.78;;;19.90;;
63902;SDS011;50072;50.678;13.938;2023-10-19T09:04:17;36.97;;;20.15;;
63902;SDS011;50072;50.678;13.938;2023-10-19T09:06:43;37.47;;;20.83;;
63902;SDS011;50072;50.678;13.938;2023-10-19T09:09:15;35.33;;;18.15;;
63902;SDS011;50072;50.678;13.938;2023-10-19T09:11:51;45.20;;;24.20;;
63902;SDS011;50072;50.678;13.938;2023-10-19T09:17:27;34.30;;;19.27;;
63902;SDS011;50072;50.678;13.938;2023-10-19T09:20:00;53.53;;;26.73;;
63902;SDS011;50072;50.678;13.938;2023-10-19T09:22:34;48.22;;;23.67;;
63902;SDS011;50072;50.678;13.938;2023-10-19T09:25:02;42.28;;;21.05;;
63902;SDS011;50072;50.678;13.938;2023-10-19T09:27:32;43.45;;;21.80;;
63902;SDS011;50072;50.678;13.938;2023-10-19T09:29:58;44.85;;;21.70;;
63902;SDS011;50072;50.678;13.938;2023-10-19T09:32:26;40.33;;;22.23;;
63902;SDS011;50072;50.678;13.938;2023-10-19T09:34:55;38.20;;;20.25;;
63902;SDS011;50072;50.678;13.938;2023-10-19T09:37:22;36.75;;;19.77;;
63902;SDS011;50072;50.678;13.938;2023-10-19T09:39:50;35.40;;;20.00;;
63902;SDS011;50072;50.678;13.938;2023-10-19T09:42:18;38.90;;;20.77;;
63902;SDS011;50072;50.678;13.938;2023-10-19T09:44:47;37.38;;;19.63;;
63902;SDS011;50072;50.678;13.938;2023-10-19T09:50:17;36.38;;;19.75;;
63902;SDS011;50072;50.678;13.938;2023-10-19T09:52:59;34.13;;;19.45;;
63902;SDS011;50072;50.678;13.938;2023-10-19T09:55:41;35.25;;;18.45;;
63902;SDS011;50072;50.678;13.938;2023-10-19T10:00:59;32.83;;;18.48;;
63902;SDS011;50072;50.678;13.938;2023-10-19T10:08:45;29.48;;;16.52;;
63902;SDS011;50072;50.678;13.938;2023-10-19T10:11:18;31.10;;;17.80;;
63902;SDS011;50072;50.678;13.938;2023-10-19T10:13:45;31.55;;;17.27;;
63902;SDS011;50072;50.678;13.938;2023-10-19T10:16:25;31.73;;;18.35;;
63902;SDS011;50072;50.678;13.938;2023-10-19T10:18:57;30.85;;;18.23;;
63902;SDS011;50072;50.678;13.938;2023-10-19T10:21:28;30.95;;;17.83;;
63902;SDS011;50072;50.678;13.938;2023-10-19T10:23:59;32.78;;;17.70;;
63902;SDS011;50072;50.678;13.938;2023-10-19T10:26:31;29.80;;;16.17;;
63902;SDS011;50072;50.678;13.938;2023-10-19T10:29:23;30.98;;;16.20;;
63902;SDS011;50072;50.678;13.938;2023-10-19T10:31:49;31.67;;;17.55;;
63902;SDS011;50072;50.678;13.938;2023-10-19T10:37:12;29.83;;;16.50;;
63902;SDS011;50072;50.678;13.938;2023-10-19T10:42:07;31.55;;;17.38;;
63902;SDS011;50072;50.678;13.938;2023-10-19T10:44:44;32.72;;;18.58;;
63902;SDS011;50072;50.678;13.938;2023-10-19T10:47:12;38.97;;;18.77;;
63902;SDS011;50072;50.678;13.938;2023-10-19T10:49:46;30.20;;;17.65;;
63902;SDS011;50072;50.678;13.938;2023-10-19T10:52:22;35.45;;;18.63;;
63902;SDS011;50072;50.678;13.938;2023-10-19T10:55:16;32.40;;;18.75;;
63902;SDS011;50072;50.678;13.938;2023-10-19T10:57:43;34.00;;;19.17;;
63902;SDS011;50072;50.678;13.938;2023-10-19T11:00:14;33.15;;;18.50;;
63902;SDS011;50072;50.678;13.938;2023-10-19T11:02:44;31.42;;;18.77;;
63902;SDS011;50072;50.678;13.938;2023-10-19T11:05:15;30.50;;;17.15;;
63902;SDS011;50072;50.678;13.938;2023-10-19T11:10:35;30.42;;;17.67;;
63902;SDS011;50072;50.678;13.938;2023-10-19T11:13:06;34.08;;;18.63;;
63902;SDS011;50072;50.678;13.938;2023-10-19T11:15:33;31.05;;;17.05;;
63902;SDS011;50072;50.678;13.938;2023-10-19T11:18:00;31.25;;;17.58;;
63902;SDS011;50072;50.678;13.938;2023-10-19T11:20:27;29.75;;;16.25;;
63902;SDS011;50072;50.678;13.938;2023-10-19T11:22:53;27.77;;;16.83;;
63902;SDS011;50072;50.678;13.938;2023-10-19T11:25:26;29.85;;;16.08;;
63902;SDS011;50072;50.678;13.938;2023-10-19T11:27:54;29.25;;;16.48;;
63902;SDS011;50072;50.678;13.938;2023-10-19T11:32:53;28.30;;;15.80;;
63902;SDS011;50072;50.678;13.938;2023-10-19T11:35:25;29.00;;;16.03;;
63902;SDS011;50072;50.678;13.938;2023-10-19T11:37:56;31.77;;;16.83;;
63902;SDS011;50072;50.678;13.938;2023-10-19T11:40:24;34.97;;;17.48;;
63902;SDS011;50072;50.678;13.938;2023-10-19T11:42:51;31.48;;;17.30;;
63902;SDS011;50072;50.678;13.938;2023-10-19T11:45:18;31.83;;;18.60;;
63902;SDS011;50072;50.678;13.938;2023-10-19T11:47:44;31.45;;;17.38;;
63902;SDS011;50072;50.678;13.938;2023-10-19T11:50:18;32.38;;;17.58;;
63902;SDS011;50072;50.678;13.938;2023-10-19T11:52:46;31.92;;;18.70;;
63902;SDS011;50072;50.678;13.938;2023-10-19T11:55:18;36.47;;;20.02;;
63902;SDS011;50072;50.678;13.938;2023-10-19T11:57:46;35.88;;;19.35;;
63902;SDS011;50072;50.678;13.938;2023-10-19T12:00:16;33.70;;;18.48;;
63902;SDS011;50072;50.678;13.938;2023-10-19T12:02:50;28.60;;;17.63;;
63902;SDS011;50072;50.678;13.938;2023-10-19T12:05:28;25.95;;;15.75;;
63902;SDS011;50072;50.678;13.938;2023-10-19T12:07:55;26.55;;;15.77;;
63902;SDS011;50072;50.678;13.938;2023-10-19T12:10:23;26.55;;;15.73;;
63902;SDS011;50072;50.678;13.938;2023-10-19T12:13:03;29.20;;;15.98;;
63902;SDS011;50072;50.678;13.938;2023-10-19T12:15:31;29.07;;;17.07;;
63902;SDS011;50072;50.678;13.938;2023-10-19T12:17:58;34.08;;;18.48;;
63902;SDS011;50072;50.678;13.938;2023-10-19T12:20:26;40.92;;;21.60;;
63902;SDS011;50072;50.678;13.938;2023-10-19T12:22:58;36.83;;;20.30;;
63902;SDS011;50072;50.678;13.938;2023-10-19T12:25:30;34.10;;;18.70;;
63902;SDS011;50072;50.678;13.938;2023-10-19T12:27:58;33.45;;;18.80;;
63902;SDS011;50072;50.678;13.938;2023-10-19T12:30:28;35.72;;;18.55;;
63902;SDS011;50072;50.678;13.938;2023-10-19T12:33:01;31.90;;;18.73;;
63902;SDS011;50072;50.678;13.938;2023-10-19T12:35:28;33.13;;;19.27;;
63902;SDS011;50072;50.678;13.938;2023-10-19T12:38:40;34.88;;;18.95;;
63902;SDS011;50072;50.678;13.938;2023-10-19T12:41:21;30.90;;;18.42;;
63902;SDS011;50072;50.678;13.938;2023-10-19T12:43:53;39.75;;;19.92;;
63902;SDS011;50072;50.678;13.938;2023-10-19T12:46:33;33.47;;;18.90;;
63902;SDS011;50072;50.678;13.938;2023-10-19T12:49:05;35.70;;;18.60;;
63902;SDS011;50072;50.678;13.938;2023-10-19T12:51:35;40.10;;;17.60;;
63902;SDS011;50072;50.678;13.938;2023-10-19T12:54:00;33.42;;;17.45;;
63902;SDS011;50072;50.678;13.938;2023-10-19T12:56:29;33.33;;;18.48;;
63902;SDS011;50072;50.678;13.938;2023-10-19T12:58:55;31.35;;;18.15;;
63902;SDS011;50072;50.678;13.938;2023-10-19T13:01:22;32.90;;;18.30;;
63902;SDS011;50072;50.678;13.938;2023-10-19T13:03:48;34.70;;;18.75;;
63902;SDS011;50072;50.678;13.938;2023-10-19T13:06:17;32.95;;;17.48;;
63902;SDS011;50072;50.678;13.938;2023-10-19T13:08:43;31.88;;;19.02;;
63902;SDS011;50072;50.678;13.938;2023-10-19T13:11:11;36.97;;;19.92;;
63902;SDS011;50072;50.678;13.938;2023-10-19T13:13:40;37.08;;;20.23;;
63902;SDS011;50072;50.678;13.938;2023-10-19T13:16:06;34.13;;;19.25;;
63902;SDS011;50072;50.678;13.938;2023-10-19T13:18:35;38.92;;;19.95;;
63902;SDS011;50072;50.678;13.938;2023-10-19T13:21:02;36.75;;;20.98;;
63902;SDS011;50072;50.678;13.938;2023-10-19T13:23:31;43.13;;;20.25;;
63902;SDS011;50072;50.678;13.938;2023-10-19T13:26:04;41.70;;;20.95;;
63902;SDS011;50072;50.678;13.938;2023-10-19T13:28:34;39.35;;;21.45;;
63902;SDS011;50072;50.678;13.938;2023-10-19T13:31:04;43.88;;;21.63;;
63902;SDS011;50072;50.678;13.938;2023-10-19T13:33:35;43.45;;;22.38;;
63902;SDS011;50072;50.678;13.938;2023-10-19T13:36:02;39.10;;;22.10;;
63902;SDS011;50072;50.678;13.938;2023-10-19T13:38:28;41.33;;;22.33;;
63902;SDS011;50072;50.678;13.938;2023-10-19T13:40:55;40.83;;;22.13;;
63902;SDS011;50072;50.678;13.938;2023-10-19T13:43:21;39.17;;;21.77;;
63902;SDS011;50072;50.678;13.938;2023-10-19T13:45:49;42.78;;;23.23;;
63902;SDS011;50072;50.678;13.938;2023-10-19T13:48:18;44.63;;;23.85;;
63902;SDS011;50072;50.678;13.938;2023-10-19T13:50:49;41.90;;;23.42;;
63902;SDS011;50072;50.678;13.938;2023-10-19T13:53:15;68.20;;;31.30;;
63902;SDS011;50072;50.678;13.938;2023-10-19T13:55:44;43.10;;;23.42;;
63902;SDS011;50072;50.678;13.938;2023-10-19T13:58:10;44.70;;;23.33;;
63902;SDS011;50072;50.678;13.938;2023-10-19T14:00:40;49.75;;;23.67;;
63902;SDS011;50072;50.678;13.938;2023-10-19T14:03:08;46.58;;;23.45;;
63902;SDS011;50072;50.678;13.938;2023-10-19T14:05:40;49.38;;;23.75;;
63902;SDS011;50072;50.678;13.938;2023-10-19T14:08:09;41.38;;;21.70;;
63902;SDS011;50072;50.678;13.938;2023-10-19T14:10:35;49.60;;;24.67;;
63902;SDS011;50072;50.678;13.938;2023-10-19T14:13:02;49.33;;;24.58;;
63902;SDS011;50072;50.678;13.938;2023-10-19T14:15:32;48.47;;;24.20;;
63902;SDS011;50072;50.678;13.938;2023-10-19T14:17:59;54.17;;;24.80;;
63902;SDS011;50072;50.678;13.938;2023-10-19T14:20:28;49.35;;;25.00;;
63902;SDS011;50072;50.678;13.938;2023-10-19T14:22:56;52.75;;;24.77;;
63902;SDS011;50072;50.678;13.938;2023-10-19T14:25:23;53.05;;;25.98;;
63902;SDS011;50072;50.678;13.938;2023-10-19T14:27:50;50.22;;;26.70;;
63902;SDS011;50072;50.678;13.938;2023-10-19T14:30:21;54.75;;;25.90;;
63902;SDS011;50072;50.678;13.938;2023-10-19T14:32:50;55.97;;;26.83;;
63902;SDS011;50072;50.678;13.938;2023-10-19T14:35:18;48.80;;;25.90;;
63902;SDS011;50072;50.678;13.938;2023-10-19T14:37:46;49.65;;;25.92;;
63902;SDS011;50072;50.678;13.938;2023-10-19T14:40:17;50.53;;;25.85;;
63902;SDS011;50072;50.678;13.938;2023-10-19T14:42:49;55.75;;;26.42;;
63902;SDS011;50072;50.678;13.938;2023-10-19T14:45:21;59.85;;;29.95;;
63902;SDS011;50072;50.678;13.938;2023-10-19T14:47:52;55.38;;;28.73;;
63902;SDS011;50072;50.678;13.938;2023-10-19T14:50:24;54.08;;;28.15;;
63902;SDS011;50072;50.678;13.938;2023-10-19T14:52:52;50.80;;;26.42;;
63902;SDS011;50072;50.678;13.938;2023-10-19T14:55:20;61.05;;;29.73;;
63902;SDS011;50072;50.678;13.938;2023-10-19T14:57:50;57.30;;;29.55;;
63902;SDS011;50072;50.678;13.938;2023-10-19T15:00:23;57.53;;;28.27;;
63902;SDS011;50072;50.678;13.938;2023-10-19T15:03:00;54.75;;;28.00;;
63902;SDS011;50072;50.678;13.938;2023-10-19T15:05:32;53.47;;;27.38;;
63902;SDS011;50072;50.678;13.938;2023-10-19T15:08:05;55.13;;;28.40;;
63902;SDS011;50072;50.678;13.938;2023-10-19T15:10:35;52.30;;;26.73;;
63902;SDS011;50072;50.678;13.938;2023-10-19T15:13:05;56.78;;;28.25;;
63902;SDS011;50072;50.678;13.938;2023-10-19T15:15:32;53.67;;;25.85;;
63902;SDS011;50072;50.678;13.938;2023-10-19T15:17:58;50.92;;;25.73;;
63902;SDS011;50072;50.678;13.938;2023-10-19T15:20:25;64.40;;;27.85;;
63902;SDS011;50072;50.678;13.938;2023-10-19T15:22:52;47.67;;;24.30;;
63902;SDS011;50072;50.678;13.938;2023-10-19T15:25:23;59.28;;;29.17;;
63902;SDS011;50072;50.678;13.938;2023-10-19T15:27:50;69.47;;;33.83;;
63902;SDS011;50072;50.678;13.938;2023-10-19T15:30:18;50.67;;;26.67;;
63902;SDS011;50072;50.678;13.938;2023-10-19T15:32:49;52.17;;;27.88;;
63902;SDS011;50072;50.678;13.938;2023-10-19T15:35:16;56.60;;;29.90;;
63902;SDS011;50072;50.678;13.938;2023-10-19T15:37:54;57.70;;;29.73;;
63902;SDS011;50072;50.678;13.938;2023-10-19T15:40:21;54.80;;;28.55;;
63902;SDS011;50072;50.678;13.938;2023-10-19T15:42:49;55.78;;;28.60;;
63902;SDS011;50072;50.678;13.938;2023-10-19T15:45:19;66.72;;;32.53;;
63902;SDS011;50072;50.678;13.938;2023-10-19T15:47:46;53.08;;;27.05;;
63902;SDS011;50072;50.678;13.938;2023-10-19T15:50:14;57.40;;;29.00;;
63902;SDS011;50072;50.678;13.938;2023-10-19T15:52:44;52.00;;;28.08;;
63902;SDS011;50072;50.678;13.938;2023-10-19T15:55:12;50.88;;;27.70;;
63902;SDS011;50072;50.678;13.938;2023-10-19T15:57:42;52.83;;;26.58;;
63902;SDS011;50072;50.678;13.938;2023-10-19T16:00:10;55.92;;;27.10;;
63902;SDS011;50072;50.678;13.938;2023-10-19T16:05:08;52.30;;;27.08;;
63902;SDS011;50072;50.678;13.938;2023-10-19T16:07:36;53.42;;;26.00;;